sensor_id;sensor_type;location;lat;lon;timestamp;P1;durP1;ratioP1;P2;durP2;ratioP2
8993;SDS011;4532;50.886;4.700;2022-07-23T00:01:46;11.63;;;10.40;;
8993;SDS011;4532;50.886;4.700;2022-07-23T00:04:14;12.15;;;10.40;;
8993;SDS011;4532;50.886;4.700;2022-07-23T00:06:43;10.80;;;9.70;;
8993;SDS011;4532;50.886;4.700;2022-07-23T00:09:13;11.32;;;10.23;;
8993;SDS011;4532;50.886;4.700;2022-07-23T00:11:45;11.00;;;9.77;;
8993;SDS011;4532;50.886;4.700;2022-07-23T00:14:15;11.15;;;9.95;;
8993;SDS011;4532;50.886;4.700;2022-07-23T00:16:42;12.80;;;10.50;;
8993;SDS011;4532;50.886;4.700;2022-07-23T00:19:12;13.65;;;11.13;;
8993;SDS011;4532;50.886;4.700;2022-07-23T00:21:39;12.30;;;10.05;;
8993;SDS011;4532;50.886;4.700;2022-07-23T00:24:07;11.40;;;10.10;;
8993;SDS011;4532;50.886;4.700;2022-07-23T00:26:34;11.48;;;10.27;;
8993;SDS011;4532;50.886;4.700;2022-07-23T00:29:03;14.10;;;11.63;;
8993;SDS011;4532;50.886;4.700;2022-07-23T00:31:31;11.32;;;10.02;;
8993;SDS011;4532;50.886;4.700;2022-07-23T00:34:00;12.60;;;11.15;;
8993;SDS011;4532;50.886;4.700;2022-07-23T00:36:30;11.73;;;10.57;;
8993;SDS011;4532;50.886;4.700;2022-07-23T00:38:57;14.35;;;11.88;;
8993;SDS011;4532;50.886;4.700;2022-07-23T00:41:30;14.07;;;11.32;;
8993;SDS011;4532;50.886;4.700;2022-07-23T00:46:46;13.30;;;11.90;;
8993;SDS011;4532;50.886;4.700;2022-07-23T00:49:15;13.27;;;11.63;;
8993;SDS011;4532;50.886;4.700;2022-07-23T00:51:44;12.88;;;11.50;;
8993;SDS011;4532;50.886;4.700;2022-07-23T00:54:11;12.93;;;11.63;;
8993;SDS011;4532;50.886;4.700;2022-07-23T00:56:42;13.35;;;11.95;;
8993;SDS011;4532;50.886;4.700;2022-07-23T00:59:10;13.45;;;11.48;;
8993;SDS011;4532;50.886;4.700;2022-07-23T01:01:41;13.25;;;11.95;;
8993;SDS011;4532;50.886;4.700;2022-07-23T01:04:08;13.07;;;11.52;;
8993;SDS011;4532;50.886;4.700;2022-07-23T01:06:38;12.93;;;11.45;;
8993;SDS011;4532;50.886;4.700;2022-07-23T01:09:05;13.75;;;12.35;;
8993;SDS011;4532;50.886;4.700;2022-07-23T01:11:38;14.73;;;12.57;;
8993;SDS011;4532;50.886;4.700;2022-07-23T01:14:09;15.75;;;11.93;;
8993;SDS011;4532;50.886;4.700;2022-07-23T01:16:36;12.98;;;11.52;;
8993;SDS011;4532;50.886;4.700;2022-07-23T01:19:04;13.85;;;12.43;;
8993;SDS011;4532;50.886;4.700;2022-07-23T01:21:37;14.25;;;11.77;;
8993;SDS011;4532;50.886;4.700;2022-07-23T01:24:09;14.43;;;11.70;;
8993;SDS011;4532;50.886;4.700;2022-07-23T01:26:37;14.30;;;12.82;;
8993;SDS011;4532;50.886;4.700;2022-07-23T01:29:07;13.68;;;12.13;;
8993;SDS011;4532;50.886;4.700;2022-07-23T01:31:40;14.90;;;12.90;;
8993;SDS011;4532;50.886;4.700;2022-07-23T01:34:08;16.63;;;13.45;;
8993;SDS011;4532;50.886;4.700;2022-07-23T01:36:36;15.60;;;12.75;;
8993;SDS011;4532;50.886;4.700;2022-07-23T01:39:06;15.70;;;12.48;;
8993;SDS011;4532;50.886;4.700;2022-07-23T01:41:36;14.23;;;12.77;;
8993;SDS011;4532;50.886;4.700;2022-07-23T01:44:03;14.15;;;12.65;;
8993;SDS011;4532;50.886;4.700;2022-07-23T01:46:33;13.90;;;12.50;;
8993;SDS011;4532;50.886;4.700;2022-07-23T01:49:00;14.73;;;13.23;;
8993;SDS011;4532;50.886;4.700;2022-07-23T01:51:30;14.23;;;12.73;;
8993;SDS011;4532;50.886;4.700;2022-07-23T01:53:57;14.75;;;12.80;;
8993;SDS011;4532;50.886;4.700;2022-07-23T01:56:25;15.20;;;13.17;;
8993;SDS011;4532;50.886;4.700;2022-07-23T01:58:56;16.88;;;12.82;;
8993;SDS011;4532;50.886;4.700;2022-07-23T02:01:26;13.73;;;12.27;;
8993;SDS011;4532;50.886;4.700;2022-07-23T02:03:56;16.80;;;13.00;;
8993;SDS011;4532;50.886;4.700;2022-07-23T02:06:31;13.75;;;12.35;;
8993;SDS011;4532;50.886;4.700;2022-07-23T02:08:58;14.13;;;12.63;;
8993;SDS011;4532;50.886;4.700;2022-07-23T02:11:26;13.90;;;12.60;;
8993;SDS011;4532;50.886;4.700;2022-07-23T02:13:53;13.65;;;12.35;;
8993;SDS011;4532;50.886;4.700;2022-07-23T02:16:23;14.48;;;12.48;;
8993;SDS011;4532;50.886;4.700;2022-07-23T02:18:50;13.93;;;12.40;;
8993;SDS011;4532;50.886;4.700;2022-07-23T02:21:17;14.43;;;12.10;;
8993;SDS011;4532;50.886;4.700;2022-07-23T02:23:44;16.20;;;12.38;;
8993;SDS011;4532;50.886;4.700;2022-07-23T02:26:14;14.77;;;13.05;;
8993;SDS011;4532;50.886;4.700;2022-07-23T02:28:46;16.07;;;12.30;;
8993;SDS011;4532;50.886;4.700;2022-07-23T02:31:13;14.35;;;12.73;;
8993;SDS011;4532;50.886;4.700;2022-07-23T02:33:41;14.52;;;12.35;;
8993;SDS011;4532;50.886;4.700;2022-07-23T02:36:08;13.90;;;12.43;;
8993;SDS011;4532;50.886;4.700;2022-07-23T02:38:35;13.75;;;11.35;;
8993;SDS011;4532;50.886;4.700;2022-07-23T02:41:03;14.55;;;12.98;;
8993;SDS011;4532;50.886;4.700;2022-07-23T02:43:30;13.82;;;12.32;;
8993;SDS011;4532;50.886;4.700;2022-07-23T02:45:59;17.52;;;12.43;;
8993;SDS011;4532;50.886;4.700;2022-07-23T02:48:27;14.90;;;12.60;;
8993;SDS011;4532;50.886;4.700;2022-07-23T02:50:54;14.52;;;13.05;;
8993;SDS011;4532;50.886;4.700;2022-07-23T02:53:23;16.92;;;12.13;;
8993;SDS011;4532;50.886;4.700;2022-07-23T02:55:50;13.95;;;12.18;;
8993;SDS011;4532;50.886;4.700;2022-07-23T02:58:20;15.50;;;11.75;;
8993;SDS011;4532;50.886;4.700;2022-07-23T03:00:48;16.05;;;12.18;;
8993;SDS011;4532;50.886;4.700;2022-07-23T03:03:19;14.20;;;12.32;;
8993;SDS011;4532;50.886;4.700;2022-07-23T03:05:47;14.55;;;12.52;;
8993;SDS011;4532;50.886;4.700;2022-07-23T03:08:14;14.40;;;12.98;;
8993;SDS011;4532;50.886;4.700;2022-07-23T03:10:42;14.05;;;12.57;;
8993;SDS011;4532;50.886;4.700;2022-07-23T03:13:09;16.20;;;12.13;;
8993;SDS011;4532;50.886;4.700;2022-07-23T03:15:36;13.50;;;12.10;;
8993;SDS011;4532;50.886;4.700;2022-07-23T03:18:05;15.02;;;13.38;;
8993;SDS011;4532;50.886;4.700;2022-07-23T03:20:37;17.03;;;13.53;;
8993;SDS011;4532;50.886;4.700;2022-07-23T03:23:05;14.15;;;12.38;;
8993;SDS011;4532;50.886;4.700;2022-07-23T03:25:37;13.77;;;12.13;;
8993;SDS011;4532;50.886;4.700;2022-07-23T03:28:06;14.52;;;12.80;;
8993;SDS011;4532;50.886;4.700;2022-07-23T03:30:34;14.88;;;12.73;;
8993;SDS011;4532;50.886;4.700;2022-07-23T03:33:03;14.57;;;13.02;;
8993;SDS011;4532;50.886;4.700;2022-07-23T03:35:31;14.65;;;13.05;;
8993;SDS011;4532;50.886;4.700;2022-07-23T03:37:58;13.95;;;12.40;;
8993;SDS011;4532;50.886;4.700;2022-07-23T03:40:28;14.68;;;13.15;;
8993;SDS011;4532;50.886;4.700;2022-07-23T03:42:56;14.77;;;12.30;;
8993;SDS011;4532;50.886;4.700;2022-07-23T03:45:23;14.77;;;12.73;;
8993;SDS011;4532;50.886;4.700;2022-07-23T03:47:52;14.63;;;12.60;;
8993;SDS011;4532;50.886;4.700;2022-07-23T03:50:20;13.82;;;12.13;;
8993;SDS011;4532;50.886;4.700;2022-07-23T03:52:49;14.63;;;12.68;;
8993;SDS011;4532;50.886;4.700;2022-07-23T03:55:20;14.02;;;12.63;;
8993;SDS011;4532;50.886;4.700;2022-07-23T03:57:52;14.80;;;12.93;;
8993;SDS011;4532;50.886;4.700;2022-07-23T04:00:22;14.18;;;12.73;;
8993;SDS011;4532;50.886;4.700;2022-07-23T04:02:51;15.23;;;12.32;;
8993;SDS011;4532;50.886;4.700;2022-07-23T04:05:18;14.57;;;13.07;;
8993;SDS011;4532;50.886;4.700;2022-07-23T04:07:48;15.25;;;13.10;;
8993;SDS011;4532;50.886;4.700;2022-07-23T04:10:15;16.60;;;13.15;;
8993;SDS011;4532;50.886;4.700;2022-07-23T04:12:42;13.70;;;12.40;;
8993;SDS011;4532;50.886;4.700;2022-07-23T04:15:09;14.43;;;12.82;;
8993;SDS011;4532;50.886;4.700;2022-07-23T04:17:39;14.63;;;13.10;;
8993;SDS011;4532;50.886;4.700;2022-07-23T04:20:10;15.17;;;13.13;;
8993;SDS011;4532;50.886;4.700;2022-07-23T04:22:38;15.13;;;13.50;;
8993;SDS011;4532;50.886;4.700;2022-07-23T04:25:05;14.55;;;12.75;;
8993;SDS011;4532;50.886;4.700;2022-07-23T04:27:35;14.03;;;12.57;;
8993;SDS011;4532;50.886;4.700;2022-07-23T04:30:02;13.35;;;11.63;;
8993;SDS011;4532;50.886;4.700;2022-07-23T04:32:35;14.30;;;12.73;;
8993;SDS011;4532;50.886;4.700;2022-07-23T04:35:02;15.60;;;12.67;;
8993;SDS011;4532;50.886;4.700;2022-07-23T04:37:29;14.57;;;13.07;;
8993;SDS011;4532;50.886;4.700;2022-07-23T04:39:57;14.20;;;12.70;;
8993;SDS011;4532;50.886;4.700;2022-07-23T04:42:26;14.25;;;12.43;;
8993;SDS011;4532;50.886;4.700;2022-07-23T04:44:56;14.38;;;12.18;;
8993;SDS011;4532;50.886;4.700;2022-07-23T04:47:28;13.98;;;12.50;;
8993;SDS011;4532;50.886;4.700;2022-07-23T04:49:58;16.43;;;12.97;;
8993;SDS011;4532;50.886;4.700;2022-07-23T04:52:30;14.20;;;12.70;;
8993;SDS011;4532;50.886;4.700;2022-07-23T04:54:57;14.20;;;12.67;;
8993;SDS011;4532;50.886;4.700;2022-07-23T04:57:26;15.68;;;12.35;;
8993;SDS011;4532;50.886;4.700;2022-07-23T04:59:54;14.88;;;13.13;;
8993;SDS011;4532;50.886;4.700;2022-07-23T05:02:21;15.25;;;12.77;;
8993;SDS011;4532;50.886;4.700;2022-07-23T05:04:48;15.98;;;12.52;;
8993;SDS011;4532;50.886;4.700;2022-07-23T05:07:15;14.98;;;12.75;;
8993;SDS011;4532;50.886;4.700;2022-07-23T05:09:45;13.48;;;12.15;;
8993;SDS011;4532;50.886;4.700;2022-07-23T05:12:17;17.33;;;12.85;;
8993;SDS011;4532;50.886;4.700;2022-07-23T05:14:50;14.07;;;12.57;;
8993;SDS011;4532;50.886;4.700;2022-07-23T05:17:23;14.25;;;12.52;;
8993;SDS011;4532;50.886;4.700;2022-07-23T05:19:52;16.07;;;12.53;;
8993;SDS011;4532;50.886;4.700;2022-07-23T05:22:26;14.27;;;12.10;;
8993;SDS011;4532;50.886;4.700;2022-07-23T05:24:55;15.25;;;12.73;;
8993;SDS011;4532;50.886;4.700;2022-07-23T05:27:22;13.93;;;11.88;;
8993;SDS011;4532;50.886;4.700;2022-07-23T05:29:50;15.93;;;12.25;;
8993;SDS011;4532;50.886;4.700;2022-07-23T05:32:17;14.02;;;12.52;;
8993;SDS011;4532;50.886;4.700;2022-07-23T05:34:46;15.10;;;12.73;;
8993;SDS011;4532;50.886;4.700;2022-07-23T05:37:13;14.77;;;11.70;;
8993;SDS011;4532;50.886;4.700;2022-07-23T05:39:45;14.45;;;11.48;;
8993;SDS011;4532;50.886;4.700;2022-07-23T05:42:15;15.38;;;11.82;;
8993;SDS011;4532;50.886;4.700;2022-07-23T05:44:43;13.80;;;12.40;;
8993;SDS011;4532;50.886;4.700;2022-07-23T05:47:10;13.38;;;11.63;;
8993;SDS011;4532;50.886;4.700;2022-07-23T05:49:37;13.30;;;10.65;;
8993;SDS011;4532;50.886;4.700;2022-07-23T05:52:05;12.98;;;11.68;;
8993;SDS011;4532;50.886;4.700;2022-07-23T05:54:34;13.02;;;11.13;;
8993;SDS011;4532;50.886;4.700;2022-07-23T05:57:04;12.88;;;11.57;;
8993;SDS011;4532;50.886;4.700;2022-07-23T05:59:31;13.95;;;11.15;;
8993;SDS011;4532;50.886;4.700;2022-07-23T06:02:01;12.90;;;11.67;;
8993;SDS011;4532;50.886;4.700;2022-07-23T06:04:28;12.02;;;10.27;;
8993;SDS011;4532;50.886;4.700;2022-07-23T06:06:55;12.63;;;10.38;;
8993;SDS011;4532;50.886;4.700;2022-07-23T06:09:25;14.57;;;10.75;;
8993;SDS011;4532;50.886;4.700;2022-07-23T06:11:52;12.10;;;10.77;;
8993;SDS011;4532;50.886;4.700;2022-07-23T06:14:20;12.07;;;10.88;;
8993;SDS011;4532;50.886;4.700;2022-07-23T06:16:47;13.88;;;10.95;;
8993;SDS011;4532;50.886;4.700;2022-07-23T06:19:21;12.23;;;11.00;;
8993;SDS011;4532;50.886;4.700;2022-07-23T06:21:49;12.65;;;11.45;;
8993;SDS011;4532;50.886;4.700;2022-07-23T06:24:18;14.35;;;11.43;;
8993;SDS011;4532;50.886;4.700;2022-07-23T06:26:45;12.88;;;11.57;;
8993;SDS011;4532;50.886;4.700;2022-07-23T06:29:13;13.30;;;12.00;;
8993;SDS011;4532;50.886;4.700;2022-07-23T06:31:42;13.20;;;11.20;;
8993;SDS011;4532;50.886;4.700;2022-07-23T06:34:12;16.73;;;12.02;;
8993;SDS011;4532;50.886;4.700;2022-07-23T06:36:41;14.98;;;11.98;;
8993;SDS011;4532;50.886;4.700;2022-07-23T06:39:10;12.95;;;10.90;;
8993;SDS011;4532;50.886;4.700;2022-07-23T06:41:44;14.30;;;10.82;;
8993;SDS011;4532;50.886;4.700;2022-07-23T06:44:17;14.45;;;11.45;;
8993;SDS011;4532;50.886;4.700;2022-07-23T06:46:44;12.50;;;11.20;;
8993;SDS011;4532;50.886;4.700;2022-07-23T06:49:14;12.95;;;10.90;;
8993;SDS011;4532;50.886;4.700;2022-07-23T06:51:46;12.60;;;10.63;;
8993;SDS011;4532;50.886;4.700;2022-07-23T06:54:15;12.43;;;11.23;;
8993;SDS011;4532;50.886;4.700;2022-07-23T06:56:46;12.88;;;11.20;;
8993;SDS011;4532;50.886;4.700;2022-07-23T06:59:13;14.68;;;10.75;;
8993;SDS011;4532;50.886;4.700;2022-07-23T07:01:40;12.40;;;11.02;;
8993;SDS011;4532;50.886;4.700;2022-07-23T07:04:08;12.80;;;11.48;;
8993;SDS011;4532;50.886;4.700;2022-07-23T07:06:37;14.40;;;11.32;;
8993;SDS011;4532;50.886;4.700;2022-07-23T07:09:09;14.25;;;11.35;;
8993;SDS011;4532;50.886;4.700;2022-07-23T07:11:41;11.68;;;10.57;;
8993;SDS011;4532;50.886;4.700;2022-07-23T07:14:11;11.45;;;10.35;;
8993;SDS011;4532;50.886;4.700;2022-07-23T07:16:38;11.52;;;10.32;;
8993;SDS011;4532;50.886;4.700;2022-07-23T07:19:08;12.50;;;11.25;;
8993;SDS011;4532;50.886;4.700;2022-07-23T07:21:35;11.25;;;10.15;;
8993;SDS011;4532;50.886;4.700;2022-07-23T07:24:03;12.07;;;10.77;;
8993;SDS011;4532;50.886;4.700;2022-07-23T07:26:30;12.68;;;10.48;;
8993;SDS011;4532;50.886;4.700;2022-07-23T07:28:58;10.80;;;9.55;;
8993;SDS011;4532;50.886;4.700;2022-07-23T07:31:28;10.23;;;8.80;;
8993;SDS011;4532;50.886;4.700;2022-07-23T07:34:00;14.25;;;10.25;;
8993;SDS011;4532;50.886;4.700;2022-07-23T07:36:37;11.52;;;10.25;;
8993;SDS011;4532;50.886;4.700;2022-07-23T07:39:04;11.20;;;10.10;;
8993;SDS011;4532;50.886;4.700;2022-07-23T07:41:39;11.93;;;10.65;;
8993;SDS011;4532;50.886;4.700;2022-07-23T07:44:09;14.02;;;9.95;;
8993;SDS011;4532;50.886;4.700;2022-07-23T07:46:38;12.25;;;9.93;;
8993;SDS011;4532;50.886;4.700;2022-07-23T07:49:08;10.77;;;9.68;;
8993;SDS011;4532;50.886;4.700;2022-07-23T07:51:42;10.25;;;9.05;;
8993;SDS011;4532;50.886;4.700;2022-07-23T07:54:12;10.05;;;8.32;;
8993;SDS011;4532;50.886;4.700;2022-07-23T07:56:41;9.35;;;8.23;;
8993;SDS011;4532;50.886;4.700;2022-07-23T07:59:12;9.73;;;8.77;;
8993;SDS011;4532;50.886;4.700;2022-07-23T08:01:39;11.23;;;8.82;;
8993;SDS011;4532;50.886;4.700;2022-07-23T08:04:07;10.63;;;9.00;;
8993;SDS011;4532;50.886;4.700;2022-07-23T08:06:34;8.65;;;7.72;;
8993;SDS011;4532;50.886;4.700;2022-07-23T08:09:04;9.25;;;7.45;;
8993;SDS011;4532;50.886;4.700;2022-07-23T08:11:31;10.60;;;7.65;;
8993;SDS011;4532;50.886;4.700;2022-07-23T08:13:59;8.48;;;7.45;;
8993;SDS011;4532;50.886;4.700;2022-07-23T08:16:26;9.68;;;7.50;;
8993;SDS011;4532;50.886;4.700;2022-07-23T08:18:54;8.63;;;7.30;;
8993;SDS011;4532;50.886;4.700;2022-07-23T08:21:22;9.45;;;7.22;;
8993;SDS011;4532;50.886;4.700;2022-07-23T08:23:49;9.73;;;7.47;;
8993;SDS011;4532;50.886;4.700;2022-07-23T08:26:16;10.77;;;8.70;;
8993;SDS011;4532;50.886;4.700;2022-07-23T08:28:46;14.35;;;8.82;;
8993;SDS011;4532;50.886;4.700;2022-07-23T08:31:16;9.80;;;8.77;;
8993;SDS011;4532;50.886;4.700;2022-07-23T08:33:44;9.80;;;8.43;;
8993;SDS011;4532;50.886;4.700;2022-07-23T08:36:15;8.82;;;7.70;;
8993;SDS011;4532;50.886;4.700;2022-07-23T08:38:45;9.73;;;8.73;;
8993;SDS011;4532;50.886;4.700;2022-07-23T08:41:14;8.95;;;7.80;;
8993;SDS011;4532;50.886;4.700;2022-07-23T08:43:47;10.50;;;8.90;;
8993;SDS011;4532;50.886;4.700;2022-07-23T08:46:17;10.85;;;8.55;;
8993;SDS011;4532;50.886;4.700;2022-07-23T08:48:47;10.93;;;8.15;;
8993;SDS011;4532;50.886;4.700;2022-07-23T08:51:15;7.78;;;6.90;;
8993;SDS011;4532;50.886;4.700;2022-07-23T08:53:46;8.10;;;6.40;;
8993;SDS011;4532;50.886;4.700;2022-07-23T08:56:15;7.13;;;6.28;;
8993;SDS011;4532;50.886;4.700;2022-07-23T08:58:45;7.70;;;6.25;;
8993;SDS011;4532;50.886;4.700;2022-07-23T09:01:15;7.13;;;6.30;;
8993;SDS011;4532;50.886;4.700;2022-07-23T09:03:42;7.30;;;6.40;;
8993;SDS011;4532;50.886;4.700;2022-07-23T09:06:11;8.63;;;6.07;;
8993;SDS011;4532;50.886;4.700;2022-07-23T09:08:46;6.72;;;5.38;;
8993;SDS011;4532;50.886;4.700;2022-07-23T09:11:17;5.82;;;5.00;;
8993;SDS011;4532;50.886;4.700;2022-07-23T09:13:48;6.82;;;6.00;;
8993;SDS011;4532;50.886;4.700;2022-07-23T09:16:26;6.63;;;5.63;;
8993;SDS011;4532;50.886;4.700;2022-07-23T09:19:02;5.95;;;5.30;;
8993;SDS011;4532;50.886;4.700;2022-07-23T09:21:34;8.55;;;6.22;;
8993;SDS011;4532;50.886;4.700;2022-07-23T09:24:03;9.15;;;5.63;;
8993;SDS011;4532;50.886;4.700;2022-07-23T09:26:38;6.32;;;5.07;;
8993;SDS011;4532;50.886;4.700;2022-07-23T09:29:21;5.30;;;4.80;;
8993;SDS011;4532;50.886;4.700;2022-07-23T09:36:54;6.40;;;4.53;;
8993;SDS011;4532;50.886;4.700;2022-07-23T09:39:29;5.40;;;4.72;;
8993;SDS011;4532;50.886;4.700;2022-07-23T09:42:12;4.95;;;4.38;;
8993;SDS011;4532;50.886;4.700;2022-07-23T09:44:40;5.75;;;3.90;;
8993;SDS011;4532;50.886;4.700;2022-07-23T09:47:11;5.32;;;3.80;;
8993;SDS011;4532;50.886;4.700;2022-07-23T09:49:58;4.82;;;3.95;;
8993;SDS011;4532;50.886;4.700;2022-07-23T09:52:33;4.40;;;4.00;;
8993;SDS011;4532;50.886;4.700;2022-07-23T09:55:04;7.10;;;4.63;;
8993;SDS011;4532;50.886;4.700;2022-07-23T09:57:37;4.47;;;3.90;;
8993;SDS011;4532;50.886;4.700;2022-07-23T10:00:07;5.78;;;4.30;;
8993;SDS011;4532;50.886;4.700;2022-07-23T10:02:40;5.88;;;4.10;;
8993;SDS011;4532;50.886;4.700;2022-07-23T10:05:07;7.13;;;4.40;;
8993;SDS011;4532;50.886;4.700;2022-07-23T10:07:39;4.78;;;4.05;;
8993;SDS011;4532;50.886;4.700;2022-07-23T10:10:09;5.30;;;4.25;;
8993;SDS011;4532;50.886;4.700;2022-07-23T10:12:40;5.30;;;3.78;;
8993;SDS011;4532;50.886;4.700;2022-07-23T10:15:18;5.78;;;4.10;;
8993;SDS011;4532;50.886;4.700;2022-07-23T10:17:48;4.07;;;3.65;;
8993;SDS011;4532;50.886;4.700;2022-07-23T10:20:15;4.05;;;3.00;;
8993;SDS011;4532;50.886;4.700;2022-07-23T10:22:44;3.22;;;2.85;;
8993;SDS011;4532;50.886;4.700;2022-07-23T10:36:53;4.03;;;2.17;;
8993;SDS011;4532;50.886;4.700;2022-07-23T10:39:27;4.10;;;2.90;;
8993;SDS011;4532;50.886;4.700;2022-07-23T10:42:15;4.03;;;2.45;;
8993;SDS011;4532;50.886;4.700;2022-07-23T10:44:46;4.00;;;3.50;;
8993;SDS011;4532;50.886;4.700;2022-07-23T10:47:29;3.88;;;2.63;;
8993;SDS011;4532;50.886;4.700;2022-07-23T10:50:31;2.83;;;2.40;;
8993;SDS011;4532;50.886;4.700;2022-07-23T10:53:08;4.72;;;2.95;;
8993;SDS011;4532;50.886;4.700;2022-07-23T10:55:41;3.28;;;2.97;;
8993;SDS011;4532;50.886;4.700;2022-07-23T10:58:11;2.63;;;2.42;;
8993;SDS011;4532;50.886;4.700;2022-07-23T11:00:46;3.45;;;2.30;;
8993;SDS011;4532;50.886;4.700;2022-07-23T11:03:36;4.15;;;3.10;;
8993;SDS011;4532;50.886;4.700;2022-07-23T11:06:06;3.63;;;3.00;;
8993;SDS011;4532;50.886;4.700;2022-07-23T11:08:33;2.95;;;2.70;;
8993;SDS011;4532;50.886;4.700;2022-07-23T11:13:29;3.75;;;2.90;;
8993;SDS011;4532;50.886;4.700;2022-07-23T11:16:18;2.92;;;2.60;;
8993;SDS011;4532;50.886;4.700;2022-07-23T11:24:06;5.22;;;2.97;;
8993;SDS011;4532;50.886;4.700;2022-07-23T11:31:59;2.72;;;2.10;;
8993;SDS011;4532;50.886;4.700;2022-07-23T11:37:06;3.45;;;2.70;;
8993;SDS011;4532;50.886;4.700;2022-07-23T11:39:34;2.85;;;2.47;;
8993;SDS011;4532;50.886;4.700;2022-07-23T11:42:06;3.28;;;2.58;;
8993;SDS011;4532;50.886;4.700;2022-07-23T11:44:37;3.50;;;2.42;;
8993;SDS011;4532;50.886;4.700;2022-07-23T11:47:10;3.72;;;2.85;;
8993;SDS011;4532;50.886;4.700;2022-07-23T11:50:01;2.65;;;2.17;;
8993;SDS011;4532;50.886;4.700;2022-07-23T11:52:32;2.75;;;2.30;;
8993;SDS011;4532;50.886;4.700;2022-07-23T11:55:01;2.92;;;1.90;;
8993;SDS011;4532;50.886;4.700;2022-07-23T11:57:34;4.03;;;2.17;;
8993;SDS011;4532;50.886;4.700;2022-07-23T12:00:10;2.70;;;2.50;;
8993;SDS011;4532;50.886;4.700;2022-07-23T12:02:40;3.72;;;2.17;;
8993;SDS011;4532;50.886;4.700;2022-07-23T12:05:21;2.35;;;2.15;;
8993;SDS011;4532;50.886;4.700;2022-07-23T12:07:51;3.47;;;2.50;;
8993;SDS011;4532;50.886;4.700;2022-07-23T12:10:20;2.13;;;1.90;;
8993;SDS011;4532;50.886;4.700;2022-07-23T12:12:54;2.90;;;2.60;;
8993;SDS011;4532;50.886;4.700;2022-07-23T12:15:36;3.30;;;2.20;;
8993;SDS011;4532;50.886;4.700;2022-07-23T12:18:08;2.40;;;2.20;;
8993;SDS011;4532;50.886;4.700;2022-07-23T12:20:45;2.75;;;2.17;;
8993;SDS011;4532;50.886;4.700;2022-07-23T12:23:15;2.90;;;2.60;;
8993;SDS011;4532;50.886;4.700;2022-07-23T12:25:49;5.30;;;3.10;;
8993;SDS011;4532;50.886;4.700;2022-07-23T12:28:19;3.22;;;2.55;;
8993;SDS011;4532;50.886;4.700;2022-07-23T12:30:55;2.90;;;2.33;;
8993;SDS011;4532;50.886;4.700;2022-07-23T12:33:28;2.47;;;2.00;;
8993;SDS011;4532;50.886;4.700;2022-07-23T12:36:03;2.35;;;2.15;;
8993;SDS011;4532;50.886;4.700;2022-07-23T12:38:46;2.15;;;1.95;;
8993;SDS011;4532;50.886;4.700;2022-07-23T12:41:19;2.30;;;2.10;;
8993;SDS011;4532;50.886;4.700;2022-07-23T12:43:49;2.42;;;2.10;;
8993;SDS011;4532;50.886;4.700;2022-07-23T12:46:17;2.83;;;2.20;;
8993;SDS011;4532;50.886;4.700;2022-07-23T12:51:19;2.55;;;2.35;;
8993;SDS011;4532;50.886;4.700;2022-07-23T12:53:52;2.33;;;2.10;;
8993;SDS011;4532;50.886;4.700;2022-07-23T12:56:28;2.20;;;2.00;;
8993;SDS011;4532;50.886;4.700;2022-07-23T13:01:37;4.28;;;2.40;;
8993;SDS011;4532;50.886;4.700;2022-07-23T13:04:17;3.42;;;2.40;;
8993;SDS011;4532;50.886;4.700;2022-07-23T13:09:26;3.42;;;2.50;;
8993;SDS011;4532;50.886;4.700;2022-07-23T13:11:59;2.50;;;2.28;;
8993;SDS011;4532;50.886;4.700;2022-07-23T13:14:31;4.30;;;2.58;;
8993;SDS011;4532;50.886;4.700;2022-07-23T13:17:01;2.95;;;2.70;;
8993;SDS011;4532;50.886;4.700;2022-07-23T13:19:32;3.03;;;2.75;;
8993;SDS011;4532;50.886;4.700;2022-07-23T13:22:00;2.83;;;2.63;;
8993;SDS011;4532;50.886;4.700;2022-07-23T13:24:35;2.88;;;2.65;;
8993;SDS011;4532;50.886;4.700;2022-07-23T13:27:05;3.60;;;2.33;;
8993;SDS011;4532;50.886;4.700;2022-07-23T13:29:37;2.65;;;2.40;;
8993;SDS011;4532;50.886;4.700;2022-07-23T13:32:07;3.50;;;2.25;;
8993;SDS011;4532;50.886;4.700;2022-07-23T13:34:39;5.60;;;2.38;;
8993;SDS011;4532;50.886;4.700;2022-07-23T13:37:07;3.67;;;2.33;;
8993;SDS011;4532;50.886;4.700;2022-07-23T13:39:42;3.83;;;2.75;;
8993;SDS011;4532;50.886;4.700;2022-07-23T13:42:15;3.50;;;2.40;;
8993;SDS011;4532;50.886;4.700;2022-07-23T13:44:42;2.63;;;2.42;;
8993;SDS011;4532;50.886;4.700;2022-07-23T13:47:10;2.88;;;2.50;;
8993;SDS011;4532;50.886;4.700;2022-07-23T13:49:37;2.30;;;2.10;;
8993;SDS011;4532;50.886;4.700;2022-07-23T13:52:04;4.07;;;2.33;;
8993;SDS011;4532;50.886;4.700;2022-07-23T13:54:34;2.40;;;2.20;;
8993;SDS011;4532;50.886;4.700;2022-07-23T13:57:05;2.40;;;2.20;;
8993;SDS011;4532;50.886;4.700;2022-07-23T13:59:35;3.22;;;2.42;;
8993;SDS011;4532;50.886;4.700;2022-07-23T14:02:06;3.05;;;2.28;;
8993;SDS011;4532;50.886;4.700;2022-07-23T14:04:51;2.67;;;2.45;;
8993;SDS011;4532;50.886;4.700;2022-07-23T14:07:18;3.03;;;2.40;;
8993;SDS011;4532;50.886;4.700;2022-07-23T14:09:47;3.03;;;2.50;;
8993;SDS011;4532;50.886;4.700;2022-07-23T14:12:15;2.53;;;2.30;;
8993;SDS011;4532;50.886;4.700;2022-07-23T14:14:43;3.60;;;2.47;;
8993;SDS011;4532;50.886;4.700;2022-07-23T14:17:11;3.58;;;2.90;;
8993;SDS011;4532;50.886;4.700;2022-07-23T14:19:38;3.08;;;2.70;;
8993;SDS011;4532;50.886;4.700;2022-07-23T14:22:09;3.13;;;2.83;;
8993;SDS011;4532;50.886;4.700;2022-07-23T14:24:37;3.22;;;2.85;;
8993;SDS011;4532;50.886;4.700;2022-07-23T14:27:04;2.60;;;2.40;;
8993;SDS011;4532;50.886;4.700;2022-07-23T14:29:34;3.45;;;2.75;;
8993;SDS011;4532;50.886;4.700;2022-07-23T14:32:03;3.42;;;2.35;;
8993;SDS011;4532;50.886;4.700;2022-07-23T14:34:32;2.83;;;2.53;;
8993;SDS011;4532;50.886;4.700;2022-07-23T14:37:04;3.00;;;2.80;;
8993;SDS011;4532;50.886;4.700;2022-07-23T14:39:31;3.45;;;2.90;;
8993;SDS011;4532;50.886;4.700;2022-07-23T14:41:59;3.80;;;3.10;;
8993;SDS011;4532;50.886;4.700;2022-07-23T14:44:30;3.67;;;3.03;;
8993;SDS011;4532;50.886;4.700;2022-07-23T14:46:58;3.22;;;2.92;;
8993;SDS011;4532;50.886;4.700;2022-07-23T14:49:30;3.25;;;3.00;;
8993;SDS011;4532;50.886;4.700;2022-07-23T14:51:58;4.55;;;2.80;;
8993;SDS011;4532;50.886;4.700;2022-07-23T14:54:26;4.38;;;2.65;;
8993;SDS011;4532;50.886;4.700;2022-07-23T14:56:55;3.75;;;2.85;;
8993;SDS011;4532;50.886;4.700;2022-07-23T14:59:29;3.92;;;2.97;;
8993;SDS011;4532;50.886;4.700;2022-07-23T15:02:00;5.28;;;3.35;;
8993;SDS011;4532;50.886;4.700;2022-07-23T15:04:28;3.88;;;2.80;;
8993;SDS011;4532;50.886;4.700;2022-07-23T15:07:18;2.95;;;2.65;;
8993;SDS011;4532;50.886;4.700;2022-07-23T15:09:48;4.22;;;2.88;;
8993;SDS011;4532;50.886;4.700;2022-07-23T15:12:16;5.78;;;3.95;;
8993;SDS011;4532;50.886;4.700;2022-07-23T15:14:45;6.82;;;3.33;;
8993;SDS011;4532;50.886;4.700;2022-07-23T15:17:15;3.33;;;3.03;;
8993;SDS011;4532;50.886;4.700;2022-07-23T15:19:47;3.38;;;2.83;;
8993;SDS011;4532;50.886;4.700;2022-07-23T15:22:17;3.85;;;3.45;;
8993;SDS011;4532;50.886;4.700;2022-07-23T15:24:45;3.45;;;3.15;;
8993;SDS011;4532;50.886;4.700;2022-07-23T15:27:16;5.97;;;3.20;;
8993;SDS011;4532;50.886;4.700;2022-07-23T15:29:46;3.22;;;2.95;;
8993;SDS011;4532;50.886;4.700;2022-07-23T15:32:13;4.20;;;3.42;;
8993;SDS011;4532;50.886;4.700;2022-07-23T15:34:43;3.88;;;3.47;;
8993;SDS011;4532;50.886;4.700;2022-07-23T15:37:13;3.70;;;3.25;;
8993;SDS011;4532;50.886;4.700;2022-07-23T15:39:44;3.60;;;3.30;;
8993;SDS011;4532;50.886;4.700;2022-07-23T15:42:14;4.82;;;3.53;;
8993;SDS011;4532;50.886;4.700;2022-07-23T15:44:48;5.22;;;3.55;;
8993;SDS011;4532;50.886;4.700;2022-07-23T15:47:22;3.47;;;3.17;;
8993;SDS011;4532;50.886;4.700;2022-07-23T15:50:10;3.75;;;3.38;;
8993;SDS011;4532;50.886;4.700;2022-07-23T15:52:41;7.10;;;3.53;;
8993;SDS011;4532;50.886;4.700;2022-07-23T15:55:11;5.45;;;3.70;;
8993;SDS011;4532;50.886;4.700;2022-07-23T15:57:59;5.10;;;3.90;;
8993;SDS011;4532;50.886;4.700;2022-07-23T16:00:28;4.05;;;3.20;;
8993;SDS011;4532;50.886;4.700;2022-07-23T16:02:58;3.60;;;3.30;;